sensor_id;sensor_type;location;lat;lon;timestamp;P1;durP1;ratioP1;P2;durP2;ratioP2
41323;SDS011;27073;51.128;4.220;2022-10-18T00:01:41;15.57;;;12.25;;
41323;SDS011;27073;51.128;4.220;2022-10-18T00:04:07;15.32;;;12.13;;
41323;SDS011;27073;51.128;4.220;2022-10-18T00:06:33;16.55;;;11.52;;
41323;SDS011;27073;51.128;4.220;2022-10-18T00:08:59;16.33;;;12.88;;
41323;SDS011;27073;51.128;4.220;2022-10-18T00:11:24;17.88;;;13.20;;
41323;SDS011;27073;51.128;4.220;2022-10-18T00:13:50;14.38;;;12.85;;
41323;SDS011;27073;51.128;4.220;2022-10-18T00:16:16;18.48;;;13.05;;
41323;SDS011;27073;51.128;4.220;2022-10-18T00:18:43;16.30;;;12.45;;
41323;SDS011;27073;51.128;4.220;2022-10-18T00:21:11;13.73;;;11.52;;
41323;SDS011;27073;51.128;4.220;2022-10-18T00:23:41;15.35;;;11.40;;
41323;SDS011;27073;51.128;4.220;2022-10-18T00:26:13;17.27;;;12.98;;
41323;SDS011;27073;51.128;4.220;2022-10-18T00:29:00;15.23;;;11.77;;
41323;SDS011;27073;51.128;4.220;2022-10-18T00:31:33;17.17;;;12.98;;
41323;SDS011;27073;51.128;4.220;2022-10-18T00:34:01;14.23;;;11.60;;
41323;SDS011;27073;51.128;4.220;2022-10-18T00:36:29;12.90;;;11.60;;
41323;SDS011;27073;51.128;4.220;2022-10-18T00:38:56;14.48;;;12.85;;
41323;SDS011;27073;51.128;4.220;2022-10-18T00:41:24;17.67;;;12.82;;
41323;SDS011;27073;51.128;4.220;2022-10-18T00:43:56;13.48;;;12.00;;
41323;SDS011;27073;51.128;4.220;2022-10-18T00:46:30;16.20;;;13.05;;
41323;SDS011;27073;51.128;4.220;2022-10-18T00:48:58;16.08;;;12.98;;
41323;SDS011;27073;51.128;4.220;2022-10-18T00:51:27;15.13;;;12.07;;
41323;SDS011;27073;51.128;4.220;2022-10-18T00:54:15;16.23;;;13.27;;
41323;SDS011;27073;51.128;4.220;2022-10-18T00:56:42;13.55;;;12.15;;
41323;SDS011;27073;51.128;4.220;2022-10-18T00:59:09;13.77;;;11.60;;
41323;SDS011;27073;51.128;4.220;2022-10-18T01:01:36;14.93;;;12.02;;
41323;SDS011;27073;51.128;4.220;2022-10-18T01:04:02;16.33;;;13.38;;
41323;SDS011;27073;51.128;4.220;2022-10-18T01:06:28;17.35;;;12.68;;
41323;SDS011;27073;51.128;4.220;2022-10-18T01:20:37;15.98;;;11.90;;
41323;SDS011;27073;51.128;4.220;2022-10-18T01:25:52;16.20;;;12.93;;
41323;SDS011;27073;51.128;4.220;2022-10-18T01:31:09;15.93;;;12.55;;
41323;SDS011;27073;51.128;4.220;2022-10-18T01:33:42;15.50;;;12.48;;
41323;SDS011;27073;51.128;4.220;2022-10-18T01:36:19;13.73;;;12.35;;
41323;SDS011;27073;51.128;4.220;2022-10-18T01:39:02;16.20;;;12.52;;
41323;SDS011;27073;51.128;4.220;2022-10-18T01:41:32;15.60;;;12.45;;
41323;SDS011;27073;51.128;4.220;2022-10-18T01:44:01;17.83;;;12.65;;
41323;SDS011;27073;51.128;4.220;2022-10-18T01:46:28;14.05;;;12.43;;
41323;SDS011;27073;51.128;4.220;2022-10-18T01:48:55;16.80;;;12.45;;
41323;SDS011;27073;51.128;4.220;2022-10-18T01:51:22;18.85;;;13.23;;
41323;SDS011;27073;51.128;4.220;2022-10-18T01:53:52;15.52;;;13.55;;
41323;SDS011;27073;51.128;4.220;2022-10-18T01:58:50;22.38;;;14.82;;
41323;SDS011;27073;51.128;4.220;2022-10-18T02:01:40;17.90;;;14.52;;
41323;SDS011;27073;51.128;4.220;2022-10-18T02:04:14;18.75;;;14.25;;
41323;SDS011;27073;51.128;4.220;2022-10-18T02:06:56;15.35;;;13.65;;
41323;SDS011;27073;51.128;4.220;2022-10-18T02:09:33;15.15;;;13.20;;
41323;SDS011;27073;51.128;4.220;2022-10-18T02:12:06;17.42;;;13.25;;
41323;SDS011;27073;51.128;4.220;2022-10-18T02:14:35;19.15;;;14.27;;
41323;SDS011;27073;51.128;4.220;2022-10-18T02:17:02;14.90;;;13.25;;
41323;SDS011;27073;51.128;4.220;2022-10-18T02:19:36;15.05;;;13.52;;
41323;SDS011;27073;51.128;4.220;2022-10-18T02:22:06;16.65;;;13.35;;
41323;SDS011;27073;51.128;4.220;2022-10-18T02:24:36;14.13;;;12.68;;
41323;SDS011;27073;51.128;4.220;2022-10-18T02:27:06;18.35;;;13.77;;
41323;SDS011;27073;51.128;4.220;2022-10-18T02:29:32;16.88;;;14.35;;
41323;SDS011;27073;51.128;4.220;2022-10-18T02:32:06;16.38;;;14.55;;
41323;SDS011;27073;51.128;4.220;2022-10-18T02:34:45;15.40;;;13.80;;
41323;SDS011;27073;51.128;4.220;2022-10-18T02:37:17;15.80;;;14.30;;
41323;SDS011;27073;51.128;4.220;2022-10-18T02:39:45;17.20;;;15.32;;
41323;SDS011;27073;51.128;4.220;2022-10-18T02:42:13;16.38;;;14.60;;
41323;SDS011;27073;51.128;4.220;2022-10-18T02:44:39;18.60;;;15.35;;
41323;SDS011;27073;51.128;4.220;2022-10-18T02:47:06;16.02;;;14.38;;
41323;SDS011;27073;51.128;4.220;2022-10-18T02:49:33;18.30;;;14.65;;
41323;SDS011;27073;51.128;4.220;2022-10-18T02:51:59;17.73;;;14.75;;
41323;SDS011;27073;51.128;4.220;2022-10-18T02:54:25;18.45;;;16.55;;
41323;SDS011;27073;51.128;4.220;2022-10-18T02:56:50;18.77;;;16.77;;
41323;SDS011;27073;51.128;4.220;2022-10-18T02:59:16;21.55;;;16.27;;
41323;SDS011;27073;51.128;4.220;2022-10-18T03:01:42;18.65;;;16.52;;
41323;SDS011;27073;51.128;4.220;2022-10-18T03:04:08;17.02;;;14.77;;
41323;SDS011;27073;51.128;4.220;2022-10-18T03:06:33;19.67;;;15.30;;
41323;SDS011;27073;51.128;4.220;2022-10-18T03:09:03;18.90;;;15.52;;
41323;SDS011;27073;51.128;4.220;2022-10-18T03:11:29;17.60;;;15.57;;
41323;SDS011;27073;51.128;4.220;2022-10-18T03:13:55;20.48;;;16.52;;
41323;SDS011;27073;51.128;4.220;2022-10-18T03:16:21;17.35;;;15.55;;
41323;SDS011;27073;51.128;4.220;2022-10-18T03:18:47;17.75;;;15.75;;
41323;SDS011;27073;51.128;4.220;2022-10-18T03:21:12;17.17;;;15.43;;
41323;SDS011;27073;51.128;4.220;2022-10-18T03:23:38;21.17;;;15.90;;
41323;SDS011;27073;51.128;4.220;2022-10-18T03:26:05;19.42;;;17.38;;
41323;SDS011;27073;51.128;4.220;2022-10-18T03:28:31;23.10;;;17.23;;
41323;SDS011;27073;51.128;4.220;2022-10-18T03:31:00;17.67;;;15.48;;
41323;SDS011;27073;51.128;4.220;2022-10-18T03:33:28;20.88;;;16.13;;
41323;SDS011;27073;51.128;4.220;2022-10-18T03:35:54;20.20;;;15.93;;
41323;SDS011;27073;51.128;4.220;2022-10-18T03:38:20;20.08;;;15.02;;
41323;SDS011;27073;51.128;4.220;2022-10-18T03:40:46;17.50;;;15.40;;
41323;SDS011;27073;51.128;4.220;2022-10-18T03:43:11;17.17;;;15.38;;
41323;SDS011;27073;51.128;4.220;2022-10-18T03:45:38;18.23;;;16.13;;
41323;SDS011;27073;51.128;4.220;2022-10-18T03:48:04;18.23;;;16.25;;
41323;SDS011;27073;51.128;4.220;2022-10-18T03:50:30;17.55;;;15.27;;
41323;SDS011;27073;51.128;4.220;2022-10-18T03:52:55;18.38;;;15.60;;
41323;SDS011;27073;51.128;4.220;2022-10-18T03:55:21;20.67;;;15.63;;
41323;SDS011;27073;51.128;4.220;2022-10-18T03:57:47;17.55;;;15.63;;
41323;SDS011;27073;51.128;4.220;2022-10-18T04:00:13;18.67;;;16.60;;
41323;SDS011;27073;51.128;4.220;2022-10-18T04:02:39;18.33;;;16.40;;
41323;SDS011;27073;51.128;4.220;2022-10-18T04:05:05;19.05;;;17.00;;
41323;SDS011;27073;51.128;4.220;2022-10-18T04:07:32;17.63;;;14.60;;
41323;SDS011;27073;51.128;4.220;2022-10-18T04:09:58;19.75;;;16.27;;
41323;SDS011;27073;51.128;4.220;2022-10-18T04:12:24;23.00;;;15.88;;
41323;SDS011;27073;51.128;4.220;2022-10-18T04:14:50;19.38;;;14.82;;
41323;SDS011;27073;51.128;4.220;2022-10-18T04:17:15;19.55;;;16.48;;
41323;SDS011;27073;51.128;4.220;2022-10-18T04:19:41;18.42;;;15.90;;
41323;SDS011;27073;51.128;4.220;2022-10-18T04:22:07;21.25;;;16.35;;
41323;SDS011;27073;51.128;4.220;2022-10-18T04:24:34;19.27;;;15.38;;
41323;SDS011;27073;51.128;4.220;2022-10-18T04:27:00;18.17;;;16.23;;
41323;SDS011;27073;51.128;4.220;2022-10-18T04:29:26;16.83;;;14.98;;
41323;SDS011;27073;51.128;4.220;2022-10-18T04:31:52;19.08;;;14.18;;
41323;SDS011;27073;51.128;4.220;2022-10-18T04:34:18;17.38;;;15.48;;
41323;SDS011;27073;51.128;4.220;2022-10-18T04:36:43;20.65;;;15.52;;
41323;SDS011;27073;51.128;4.220;2022-10-18T04:39:09;19.17;;;15.20;;
41323;SDS011;27073;51.128;4.220;2022-10-18T04:41:34;22.60;;;15.93;;
41323;SDS011;27073;51.128;4.220;2022-10-18T04:44:00;18.10;;;15.20;;
41323;SDS011;27073;51.128;4.220;2022-10-18T04:46:26;20.40;;;14.70;;
41323;SDS011;27073;51.128;4.220;2022-10-18T04:48:52;19.83;;;15.20;;
41323;SDS011;27073;51.128;4.220;2022-10-18T04:51:17;21.00;;;15.27;;
41323;SDS011;27073;51.128;4.220;2022-10-18T04:53:43;23.90;;;15.75;;
41323;SDS011;27073;51.128;4.220;2022-10-18T04:56:09;23.40;;;15.45;;
41323;SDS011;27073;51.128;4.220;2022-10-18T04:58:34;19.50;;;16.33;;
41323;SDS011;27073;51.128;4.220;2022-10-18T05:01:03;21.10;;;15.57;;
41323;SDS011;27073;51.128;4.220;2022-10-18T05:03:30;22.48;;;17.20;;
41323;SDS011;27073;51.128;4.220;2022-10-18T05:05:56;18.90;;;14.75;;
41323;SDS011;27073;51.128;4.220;2022-10-18T05:08:22;22.88;;;14.38;;
41323;SDS011;27073;51.128;4.220;2022-10-18T05:10:48;22.17;;;16.00;;
41323;SDS011;27073;51.128;4.220;2022-10-18T05:13:13;19.05;;;15.38;;
41323;SDS011;27073;51.128;4.220;2022-10-18T05:15:39;20.88;;;15.55;;
41323;SDS011;27073;51.128;4.220;2022-10-18T05:18:05;19.42;;;14.57;;
41323;SDS011;27073;51.128;4.220;2022-10-18T05:20:30;21.13;;;15.55;;
41323;SDS011;27073;51.128;4.220;2022-10-18T05:22:57;18.45;;;15.20;;
41323;SDS011;27073;51.128;4.220;2022-10-18T05:25:22;20.08;;;15.05;;
41323;SDS011;27073;51.128;4.220;2022-10-18T05:27:48;19.13;;;15.05;;
41323;SDS011;27073;51.128;4.220;2022-10-18T05:30:14;20.65;;;15.23;;
41323;SDS011;27073;51.128;4.220;2022-10-18T05:32:40;17.55;;;14.52;;
41323;SDS011;27073;51.128;4.220;2022-10-18T05:35:06;22.02;;;14.95;;
41323;SDS011;27073;51.128;4.220;2022-10-18T05:37:31;19.45;;;15.68;;
41323;SDS011;27073;51.128;4.220;2022-10-18T05:39:57;29.02;;;16.50;;
41323;SDS011;27073;51.128;4.220;2022-10-18T05:42:23;21.48;;;15.07;;
41323;SDS011;27073;51.128;4.220;2022-10-18T05:44:49;17.63;;;15.60;;
41323;SDS011;27073;51.128;4.220;2022-10-18T05:47:14;27.45;;;17.40;;
41323;SDS011;27073;51.128;4.220;2022-10-18T05:49:40;24.10;;;17.10;;
41323;SDS011;27073;51.128;4.220;2022-10-18T05:52:06;26.88;;;18.20;;
41323;SDS011;27073;51.128;4.220;2022-10-18T05:54:31;18.83;;;16.80;;
41323;SDS011;27073;51.128;4.220;2022-10-18T05:56:57;24.25;;;17.30;;
41323;SDS011;27073;51.128;4.220;2022-10-18T05:59:23;24.58;;;17.70;;
41323;SDS011;27073;51.128;4.220;2022-10-18T06:01:48;19.95;;;16.73;;
41323;SDS011;27073;51.128;4.220;2022-10-18T06:04:14;24.02;;;17.67;;
41323;SDS011;27073;51.128;4.220;2022-10-18T06:06:41;20.48;;;16.70;;
41323;SDS011;27073;51.128;4.220;2022-10-18T06:09:07;23.10;;;16.75;;
41323;SDS011;27073;51.128;4.220;2022-10-18T06:11:34;20.10;;;16.60;;
41323;SDS011;27073;51.128;4.220;2022-10-18T06:14:00;24.20;;;17.42;;
41323;SDS011;27073;51.128;4.220;2022-10-18T06:16:26;23.42;;;16.70;;
41323;SDS011;27073;51.128;4.220;2022-10-18T06:18:55;23.73;;;17.30;;
41323;SDS011;27073;51.128;4.220;2022-10-18T06:21:22;18.92;;;16.33;;
41323;SDS011;27073;51.128;4.220;2022-10-18T06:23:49;24.08;;;16.90;;
41323;SDS011;27073;51.128;4.220;2022-10-18T06:26:16;21.52;;;15.65;;
41323;SDS011;27073;51.128;4.220;2022-10-18T06:28:42;23.67;;;15.80;;
41323;SDS011;27073;51.128;4.220;2022-10-18T06:31:08;22.70;;;17.00;;
41323;SDS011;27073;51.128;4.220;2022-10-18T06:33:35;20.23;;;17.75;;
41323;SDS011;27073;51.128;4.220;2022-10-18T06:38:31;26.92;;;19.05;;
41323;SDS011;27073;51.128;4.220;2022-10-18T06:40:58;21.77;;;18.33;;
41323;SDS011;27073;51.128;4.220;2022-10-18T06:43:24;24.65;;;16.55;;
41323;SDS011;27073;51.128;4.220;2022-10-18T06:45:50;23.00;;;18.40;;
41323;SDS011;27073;51.128;4.220;2022-10-18T06:48:17;28.88;;;19.10;;
41323;SDS011;27073;51.128;4.220;2022-10-18T06:50:50;24.08;;;17.85;;
41323;SDS011;27073;51.128;4.220;2022-10-18T06:53:26;22.13;;;17.53;;
41323;SDS011;27073;51.128;4.220;2022-10-18T06:56:00;27.95;;;18.75;;
41323;SDS011;27073;51.128;4.220;2022-10-18T06:58:28;29.13;;;18.42;;
41323;SDS011;27073;51.128;4.220;2022-10-18T07:00:54;29.35;;;16.33;;
41323;SDS011;27073;51.128;4.220;2022-10-18T07:03:20;26.83;;;16.00;;
41323;SDS011;27073;51.128;4.220;2022-10-18T07:05:47;26.33;;;17.00;;
41323;SDS011;27073;51.128;4.220;2022-10-18T07:08:13;25.98;;;16.27;;
41323;SDS011;27073;51.128;4.220;2022-10-18T07:10:39;26.45;;;16.05;;
41323;SDS011;27073;51.128;4.220;2022-10-18T07:13:04;28.55;;;15.73;;
41323;SDS011;27073;51.128;4.220;2022-10-18T07:15:30;28.27;;;14.95;;
41323;SDS011;27073;51.128;4.220;2022-10-18T07:17:56;26.98;;;17.08;;
41323;SDS011;27073;51.128;4.220;2022-10-18T07:20:21;28.27;;;18.35;;
41323;SDS011;27073;51.128;4.220;2022-10-18T07:22:51;28.33;;;18.48;;
41323;SDS011;27073;51.128;4.220;2022-10-18T07:25:21;24.95;;;18.33;;
41323;SDS011;27073;51.128;4.220;2022-10-18T07:27:46;27.20;;;18.63;;
41323;SDS011;27073;51.128;4.220;2022-10-18T07:30:12;26.55;;;17.42;;
41323;SDS011;27073;51.128;4.220;2022-10-18T07:32:38;24.38;;;16.77;;
41323;SDS011;27073;51.128;4.220;2022-10-18T07:35:03;23.15;;;16.02;;
41323;SDS011;27073;51.128;4.220;2022-10-18T07:37:29;23.30;;;16.83;;
41323;SDS011;27073;51.128;4.220;2022-10-18T07:39:55;22.38;;;17.58;;
41323;SDS011;27073;51.128;4.220;2022-10-18T07:42:21;28.35;;;18.25;;
41323;SDS011;27073;51.128;4.220;2022-10-18T07:44:47;26.20;;;20.30;;
41323;SDS011;27073;51.128;4.220;2022-10-18T07:47:13;30.77;;;19.08;;
41323;SDS011;27073;51.128;4.220;2022-10-18T07:49:39;30.75;;;19.15;;
41323;SDS011;27073;51.128;4.220;2022-10-18T07:52:04;26.73;;;19.40;;
41323;SDS011;27073;51.128;4.220;2022-10-18T07:54:30;33.15;;;19.15;;
41323;SDS011;27073;51.128;4.220;2022-10-18T07:56:56;29.00;;;17.65;;
41323;SDS011;27073;51.128;4.220;2022-10-18T07:59:21;20.17;;;15.05;;
41323;SDS011;27073;51.128;4.220;2022-10-18T08:01:47;23.38;;;14.88;;
41323;SDS011;27073;51.128;4.220;2022-10-18T08:04:13;28.70;;;15.20;;
41323;SDS011;27073;51.128;4.220;2022-10-18T08:06:38;23.40;;;13.85;;
41323;SDS011;27073;51.128;4.220;2022-10-18T08:09:05;23.83;;;13.25;;
41323;SDS011;27073;51.128;4.220;2022-10-18T08:11:31;26.52;;;13.25;;
41323;SDS011;27073;51.128;4.220;2022-10-18T08:13:57;25.63;;;12.35;;
41323;SDS011;27073;51.128;4.220;2022-10-18T08:16:23;25.67;;;12.55;;
41323;SDS011;27073;51.128;4.220;2022-10-18T08:18:51;25.77;;;12.25;;
41323;SDS011;27073;51.128;4.220;2022-10-18T08:21:17;28.75;;;12.75;;
41323;SDS011;27073;51.128;4.220;2022-10-18T08:23:45;25.67;;;12.25;;
41323;SDS011;27073;51.128;4.220;2022-10-18T08:26:15;24.75;;;11.50;;
41323;SDS011;27073;51.128;4.220;2022-10-18T08:28:42;21.15;;;11.50;;
41323;SDS011;27073;51.128;4.220;2022-10-18T08:31:12;26.98;;;11.10;;
41323;SDS011;27073;51.128;4.220;2022-10-18T08:33:41;20.33;;;10.07;;
41323;SDS011;27073;51.128;4.220;2022-10-18T08:36:08;22.45;;;10.82;;
41323;SDS011;27073;51.128;4.220;2022-10-18T08:38:37;20.90;;;9.80;;
41323;SDS011;27073;51.128;4.220;2022-10-18T08:44:10;22.95;;;9.50;;
41323;SDS011;27073;51.128;4.220;2022-10-18T08:46:54;22.40;;;8.48;;
41323;SDS011;27073;51.128;4.220;2022-10-18T08:49:40;27.88;;;8.00;;
41323;SDS011;27073;51.128;4.220;2022-10-18T08:52:12;23.55;;;8.15;;
41323;SDS011;27073;51.128;4.220;2022-10-18T08:54:46;21.57;;;8.17;;
41323;SDS011;27073;51.128;4.220;2022-10-18T08:57:34;25.17;;;9.15;;
41323;SDS011;27073;51.128;4.220;2022-10-18T09:00:01;19.83;;;8.35;;
41323;SDS011;27073;51.128;4.220;2022-10-18T09:05:30;19.88;;;7.95;;
41323;SDS011;27073;51.128;4.220;2022-10-18T09:14:00;21.15;;;8.32;;
41323;SDS011;27073;51.128;4.220;2022-10-18T09:22:19;23.20;;;8.20;;
41323;SDS011;27073;51.128;4.220;2022-10-18T09:24:53;26.10;;;8.45;;
41323;SDS011;27073;51.128;4.220;2022-10-18T09:27:34;23.10;;;9.55;;
41323;SDS011;27073;51.128;4.220;2022-10-18T09:30:26;23.85;;;9.50;;
41323;SDS011;27073;51.128;4.220;2022-10-18T09:35:48;26.20;;;9.32;;
41323;SDS011;27073;51.128;4.220;2022-10-18T09:38:24;21.50;;;8.60;;
41323;SDS011;27073;51.128;4.220;2022-10-18T09:41:01;25.85;;;9.80;;
41323;SDS011;27073;51.128;4.220;2022-10-18T09:43:38;23.52;;;8.95;;
41323;SDS011;27073;51.128;4.220;2022-10-18T09:46:11;28.35;;;11.43;;
41323;SDS011;27073;51.128;4.220;2022-10-18T09:51:14;24.35;;;10.35;;
41323;SDS011;27073;51.128;4.220;2022-10-18T09:54:06;23.60;;;10.48;;
41323;SDS011;27073;51.128;4.220;2022-10-18T09:56:44;21.83;;;9.50;;
41323;SDS011;27073;51.128;4.220;2022-10-18T09:59:35;26.35;;;10.00;;
41323;SDS011;27073;51.128;4.220;2022-10-18T10:02:01;21.08;;;8.70;;
41323;SDS011;27073;51.128;4.220;2022-10-18T10:04:27;22.83;;;8.32;;
41323;SDS011;27073;51.128;4.220;2022-10-18T10:06:53;26.48;;;8.38;;
41323;SDS011;27073;51.128;4.220;2022-10-18T10:09:24;17.27;;;8.05;;
41323;SDS011;27073;51.128;4.220;2022-10-18T10:12:03;27.50;;;9.60;;
41323;SDS011;27073;51.128;4.220;2022-10-18T10:14:43;21.67;;;8.15;;
41323;SDS011;27073;51.128;4.220;2022-10-18T10:17:22;16.40;;;4.60;;
41323;SDS011;27073;51.128;4.220;2022-10-18T10:19:55;21.48;;;4.65;;
41323;SDS011;27073;51.128;4.220;2022-10-18T10:22:25;15.27;;;4.28;;
41323;SDS011;27073;51.128;4.220;2022-10-18T10:24:55;19.73;;;6.28;;
41323;SDS011;27073;51.128;4.220;2022-10-18T10:27:31;16.15;;;4.68;;
41323;SDS011;27073;51.128;4.220;2022-10-18T10:30:19;15.52;;;4.38;;
41323;SDS011;27073;51.128;4.220;2022-10-18T10:32:51;16.75;;;3.70;;
41323;SDS011;27073;51.128;4.220;2022-10-18T10:35:22;18.63;;;3.50;;
41323;SDS011;27073;51.128;4.220;2022-10-18T10:37:57;13.48;;;2.85;;
41323;SDS011;27073;51.128;4.220;2022-10-18T10:40:24;14.38;;;3.53;;
41323;SDS011;27073;51.128;4.220;2022-10-18T10:48:21;23.73;;;5.32;;
41323;SDS011;27073;51.128;4.220;2022-10-18T10:50:51;16.27;;;4.25;;
41323;SDS011;27073;51.128;4.220;2022-10-18T10:53:33;15.20;;;3.97;;
41323;SDS011;27073;51.128;4.220;2022-10-18T10:56:05;18.13;;;4.05;;
41323;SDS011;27073;51.128;4.220;2022-10-18T10:58:37;21.95;;;5.68;;
41323;SDS011;27073;51.128;4.220;2022-10-18T11:01:22;14.82;;;3.50;;
41323;SDS011;27073;51.128;4.220;2022-10-18T11:03:53;16.27;;;3.50;;
41323;SDS011;27073;51.128;4.220;2022-10-18T11:08:56;17.98;;;3.85;;
41323;SDS011;27073;51.128;4.220;2022-10-18T11:11:26;14.75;;;3.50;;
41323;SDS011;27073;51.128;4.220;2022-10-18T11:14:03;11.77;;;2.78;;
41323;SDS011;27073;51.128;4.220;2022-10-18T11:22:58;14.38;;;3.45;;
41323;SDS011;27073;51.128;4.220;2022-10-18T11:25:22;13.60;;;2.83;;
41323;SDS011;27073;51.128;4.220;2022-10-18T11:27:54;17.25;;;3.25;;
41323;SDS011;27073;51.128;4.220;2022-10-18T11:30:48;19.25;;;4.15;;
41323;SDS011;27073;51.128;4.220;2022-10-18T11:33:30;21.75;;;4.22;;
41323;SDS011;27073;51.128;4.220;2022-10-18T11:39:16;15.02;;;2.75;;
41323;SDS011;27073;51.128;4.220;2022-10-18T11:41:54;10.90;;;3.13;;
41323;SDS011;27073;51.128;4.220;2022-10-18T11:47:48;11.30;;;2.67;;
41323;SDS011;27073;51.128;4.220;2022-10-18T11:53:25;13.70;;;2.42;;
41323;SDS011;27073;51.128;4.220;2022-10-18T12:01:39;16.92;;;2.88;;
41323;SDS011;27073;51.128;4.220;2022-10-18T12:04:20;9.70;;;2.95;;
41323;SDS011;27073;51.128;4.220;2022-10-18T12:06:49;13.10;;;4.05;;
41323;SDS011;27073;51.128;4.220;2022-10-18T12:12:16;12.10;;;2.95;;
41323;SDS011;27073;51.128;4.220;2022-10-18T12:14:47;17.38;;;3.20;;
41323;SDS011;27073;51.128;4.220;2022-10-18T12:20:30;14.68;;;2.00;;
41323;SDS011;27073;51.128;4.220;2022-10-18T12:23:15;13.02;;;2.47;;
41323;SDS011;27073;51.128;4.220;2022-10-18T12:25:50;14.60;;;2.60;;
41323;SDS011;27073;51.128;4.220;2022-10-18T12:31:00;12.30;;;2.88;;
41323;SDS011;27073;51.128;4.220;2022-10-18T12:33:48;12.70;;;2.78;;
41323;SDS011;27073;51.128;4.220;2022-10-18T12:38:48;14.80;;;2.67;;
41323;SDS011;27073;51.128;4.220;2022-10-18T12:41:26;12.25;;;3.00;;
41323;SDS011;27073;51.128;4.220;2022-10-18T12:44:02;11.60;;;2.72;;
41323;SDS011;27073;51.128;4.220;2022-10-18T12:46:43;13.68;;;3.22;;
41323;SDS011;27073;51.128;4.220;2022-10-18T12:49:12;11.88;;;4.28;;
41323;SDS011;27073;51.128;4.220;2022-10-18T12:51:51;14.55;;;3.17;;
41323;SDS011;27073;51.128;4.220;2022-10-18T12:54:20;13.25;;;2.97;;
41323;SDS011;27073;51.128;4.220;2022-10-18T12:56:50;14.05;;;3.28;;
41323;SDS011;27073;51.128;4.220;2022-10-18T13:04:36;13.35;;;3.00;;
41323;SDS011;27073;51.128;4.220;2022-10-18T13:07:19;14.77;;;3.17;;
41323;SDS011;27073;51.128;4.220;2022-10-18T13:17:58;9.73;;;2.75;;
41323;SDS011;27073;51.128;4.220;2022-10-18T13:31:28;16.52;;;3.10;;
41323;SDS011;27073;51.128;4.220;2022-10-18T13:34:15;11.05;;;3.08;;
41323;SDS011;27073;51.128;4.220;2022-10-18T13:37:17;13.75;;;2.92;;
41323;SDS011;27073;51.128;4.220;2022-10-18T13:39:48;14.40;;;2.83;;
41323;SDS011;27073;51.128;4.220;2022-10-18T13:42:27;13.93;;;3.53;;
41323;SDS011;27073;51.128;4.220;2022-10-18T13:44:55;9.35;;;2.53;;
41323;SDS011;27073;51.128;4.220;2022-10-18T13:47:55;14.63;;;3.60;;
41323;SDS011;27073;51.128;4.220;2022-10-18T13:50:41;12.18;;;2.92;;
41323;SDS011;27073;51.128;4.220;2022-10-18T13:53:17;12.55;;;2.53;;
41323;SDS011;27073;51.128;4.220;2022-10-18T14:01:50;15.90;;;2.38;;
41323;SDS011;27073;51.128;4.220;2022-10-18T14:07:36;11.35;;;2.47;;
41323;SDS011;27073;51.128;4.220;2022-10-18T14:10:02;11.40;;;2.47;;
41323;SDS011;27073;51.128;4.220;2022-10-18T14:15:20;9.65;;;1.92;;
41323;SDS011;27073;51.128;4.220;2022-10-18T14:17:55;11.02;;;2.63;;
41323;SDS011;27073;51.128;4.220;2022-10-18T14:20:42;13.63;;;2.05;;
41323;SDS011;27073;51.128;4.220;2022-10-18T14:23:14;14.82;;;2.40;;
41323;SDS011;27073;51.128;4.220;2022-10-18T14:25:45;10.32;;;2.10;;
41323;SDS011;27073;51.128;4.220;2022-10-18T14:28:15;9.75;;;2.20;;
41323;SDS011;27073;51.128;4.220;2022-10-18T14:30:59;10.48;;;2.13;;
41323;SDS011;27073;51.128;4.220;2022-10-18T14:36:14;12.68;;;2.20;;
41323;SDS011;27073;51.128;4.220;2022-10-18T14:41:36;12.95;;;2.60;;
41323;SDS011;27073;51.128;4.220;2022-10-18T14:46:40;13.30;;;3.20;;
41323;SDS011;27073;51.128;4.220;2022-10-18T14:49:26;9.55;;;2.70;;
41323;SDS011;27073;51.128;4.220;2022-10-18T14:51:57;13.93;;;2.40;;
41323;SDS011;27073;51.128;4.220;2022-10-18T14:54:27;11.48;;;2.50;;
41323;SDS011;27073;51.128;4.220;2022-10-18T14:56:56;10.20;;;2.20;;
41323;SDS011;27073;51.128;4.220;2022-10-18T14:59:23;11.35;;;2.25;;
41323;SDS011;27073;51.128;4.220;2022-10-18T15:01:52;10.85;;;2.50;;
41323;SDS011;27073;51.128;4.220;2022-10-18T15:04:34;11.75;;;2.20;;
41323;SDS011;27073;51.128;4.220;2022-10-18T15:07:03;10.60;;;2.50;;
41323;SDS011;27073;51.128;4.220;2022-10-18T15:09:32;12.48;;;2.45;;
41323;SDS011;27073;51.128;4.220;2022-10-18T15:12:03;7.35;;;1.77;;
41323;SDS011;27073;51.128;4.220;2022-10-18T15:14:31;12.50;;;2.10;;
41323;SDS011;27073;51.128;4.220;2022-10-18T15:17:01;10.65;;;2.10;;
41323;SDS011;27073;51.128;4.220;2022-10-18T15:19:38;10.02;;;2.10;;
41323;SDS011;27073;51.128;4.220;2022-10-18T15:22:20;12.50;;;1.95;;
41323;SDS011;27073;51.128;4.220;2022-10-18T15:25:02;10.52;;;2.45;;
41323;SDS011;27073;51.128;4.220;2022-10-18T15:27:58;12.48;;;3.03;;
41323;SDS011;27073;51.128;4.220;2022-10-18T15:30:35;9.05;;;1.98;;
41323;SDS011;27073;51.128;4.220;2022-10-18T15:33:04;10.40;;;2.10;;
41323;SDS011;27073;51.128;4.220;2022-10-18T15:35:35;10.13;;;2.40;;
41323;SDS011;27073;51.128;4.220;2022-10-18T15:38:14;13.68;;;2.60;;
41323;SDS011;27073;51.128;4.220;2022-10-18T15:48:19;9.05;;;2.20;;
41323;SDS011;27073;51.128;4.220;2022-10-18T15:50:46;11.98;;;1.98;;
41323;SDS011;27073;51.128;4.220;2022-10-18T16:00:50;15.95;;;2.42;;
41323;SDS011;27073;51.128;4.220;2022-10-18T16:03:18;9.00;;;2.10;;
41323;SDS011;27073;51.128;4.220;2022-10-18T16:05:46;13.75;;;3.17;;
41323;SDS011;27073;51.128;4.220;2022-10-18T16:08:30;9.77;;;1.73;;
41323;SDS011;27073;51.128;4.220;2022-10-18T16:10:57;8.40;;;1.80;;
41323;SDS011;27073;51.128;4.220;2022-10-18T16:13:24;10.30;;;2.13;;
41323;SDS011;27073;51.128;4.220;2022-10-18T16:15:50;9.63;;;2.05;;
41323;SDS011;27073;51.128;4.220;2022-10-18T16:18:19;10.93;;;1.92;;
41323;SDS011;27073;51.128;4.220;2022-10-18T16:20:46;9.85;;;2.55;;
41323;SDS011;27073;51.128;4.220;2022-10-18T16:23:13;9.35;;;1.92;;
41323;SDS011;27073;51.128;4.220;2022-10-18T16:25:52;12.45;;;2.85;;
41323;SDS011;27073;51.128;4.220;2022-10-18T16:28:20;11.68;;;2.08;;
41323;SDS011;27073;51.128;4.220;2022-10-18T16:31:06;14.37;;;2.50;;
41323;SDS011;27073;51.128;4.220;2022-10-18T16:33:34;12.40;;;2.22;;
41323;SDS011;27073;51.128;4.220;2022-10-18T16:36:01;7.70;;;2.00;;
41323;SDS011;27073;51.128;4.220;2022-10-18T16:40:55;12.60;;;2.10;;
41323;SDS011;27073;51.128;4.220;2022-10-18T16:43:21;9.93;;;2.05;;
41323;SDS011;27073;51.128;4.220;2022-10-18T16:45:47;10.50;;;2.28;;
41323;SDS011;27073;51.128;4.220;2022-10-18T16:48:15;11.32;;;2.28;;
41323;SDS011;27073;51.128;4.220;2022-10-18T16:50:43;13.55;;;2.92;;
41323;SDS011;27073;51.128;4.220;2022-10-18T16:53:09;13.60;;;3.40;;
41323;SDS011;27073;51.128;4.220;2022-10-18T16:55:36;10.40;;;2.50;;
41323;SDS011;27073;51.128;4.220;2022-10-18T16:58:03;9.05;;;2.55;;
41323;SDS011;27073;51.128;4.220;2022-10-18T17:00:29;12.07;;;2.70;;
41323;SDS011;27073;51.128;4.220;2022-10-18T17:02:55;13.40;;;2.83;;
41323;SDS011;27073;51.128;4.220;2022-10-18T17:05:20;11.48;;;2.28;;
41323;SDS011;27073;51.128;4.220;2022-10-18T17:07:47;13.73;;;4.80;;
41323;SDS011;27073;51.128;4.220;2022-10-18T17:10:14;14.25;;;2.92;;
41323;SDS011;27073;51.128;4.220;2022-10-18T17:12:41;10.32;;;2.33;;
41323;SDS011;27073;51.128;4.220;2022-10-18T17:15:07;9.82;;;3.10;;